sensor_id;sensor_type;location;lat;lon;timestamp;P1;durP1;ratioP1;P2;durP2;ratioP2
51358;SDS011;37448;51.588;7.248;2023-04-24T00:00:34;0.90;;;0.50;;
51358;SDS011;37448;51.588;7.248;2023-04-24T00:02:36;0.98;;;0.20;;
51358;SDS011;37448;51.588;7.248;2023-04-24T00:04:40;1.30;;;0.22;;
51358;SDS011;37448;51.588;7.248;2023-04-24T00:06:41;0.73;;;0.30;;
51358;SDS011;37448;51.588;7.248;2023-04-24T00:08:43;1.00;;;0.40;;
51358;SDS011;37448;51.588;7.248;2023-04-24T00:10:44;0.63;;;0.30;;
51358;SDS011;37448;51.588;7.248;2023-04-24T00:12:44;0.68;;;0.40;;
51358;SDS011;37448;51.588;7.248;2023-04-24T00:14:44;2.10;;;0.30;;
51358;SDS011;37448;51.588;7.248;2023-04-24T00:16:45;0.45;;;0.20;;
51358;SDS011;37448;51.588;7.248;2023-04-24T00:18:45;0.93;;;0.30;;
51358;SDS011;37448;51.588;7.248;2023-04-24T00:20:47;1.08;;;0.32;;
51358;SDS011;37448;51.588;7.248;2023-04-24T00:22:48;0.57;;;0.30;;
51358;SDS011;37448;51.588;7.248;2023-04-24T00:24:48;0.40;;;0.20;;
51358;SDS011;37448;51.588;7.248;2023-04-24T00:26:48;1.17;;;0.50;;
51358;SDS011;37448;51.588;7.248;2023-04-24T00:28:49;0.80;;;0.65;;
51358;SDS011;37448;51.588;7.248;2023-04-24T00:30:49;0.98;;;0.55;;
51358;SDS011;37448;51.588;7.248;2023-04-24T00:32:50;0.65;;;0.38;;
51358;SDS011;37448;51.588;7.248;2023-04-24T00:34:51;0.63;;;0.50;;
51358;SDS011;37448;51.588;7.248;2023-04-24T00:36:51;1.45;;;0.40;;
51358;SDS011;37448;51.588;7.248;2023-04-24T00:38:52;2.50;;;0.50;;
51358;SDS011;37448;51.588;7.248;2023-04-24T00:40:53;1.25;;;0.40;;
51358;SDS011;37448;51.588;7.248;2023-04-24T00:42:54;1.52;;;0.60;;
51358;SDS011;37448;51.588;7.248;2023-04-24T00:44:55;2.20;;;0.50;;
51358;SDS011;37448;51.588;7.248;2023-04-24T00:46:56;1.33;;;0.40;;
51358;SDS011;37448;51.588;7.248;2023-04-24T00:48:58;0.70;;;0.50;;
51358;SDS011;37448;51.588;7.248;2023-04-24T00:50:59;2.58;;;0.95;;
51358;SDS011;37448;51.588;7.248;2023-04-24T00:52:59;0.85;;;0.40;;
51358;SDS011;37448;51.588;7.248;2023-04-24T00:55:00;0.95;;;0.70;;
51358;SDS011;37448;51.588;7.248;2023-04-24T00:57:01;1.27;;;0.73;;
51358;SDS011;37448;51.588;7.248;2023-04-24T00:59:03;3.05;;;0.60;;
51358;SDS011;37448;51.588;7.248;2023-04-24T01:01:04;0.93;;;0.73;;
51358;SDS011;37448;51.588;7.248;2023-04-24T01:03:07;0.77;;;0.55;;
51358;SDS011;37448;51.588;7.248;2023-04-24T01:05:07;1.02;;;0.47;;
51358;SDS011;37448;51.588;7.248;2023-04-24T01:07:08;1.02;;;0.80;;
51358;SDS011;37448;51.588;7.248;2023-04-24T01:09:11;1.20;;;0.63;;
51358;SDS011;37448;51.588;7.248;2023-04-24T01:11:12;1.85;;;0.68;;
51358;SDS011;37448;51.588;7.248;2023-04-24T01:13:13;1.45;;;0.60;;
51358;SDS011;37448;51.588;7.248;2023-04-24T01:15:13;1.42;;;0.60;;
51358;SDS011;37448;51.588;7.248;2023-04-24T01:17:16;1.75;;;1.10;;
51358;SDS011;37448;51.588;7.248;2023-04-24T01:19:16;1.95;;;0.90;;
51358;SDS011;37448;51.588;7.248;2023-04-24T01:21:18;1.73;;;0.70;;
51358;SDS011;37448;51.588;7.248;2023-04-24T01:23:21;1.73;;;0.85;;
51358;SDS011;37448;51.588;7.248;2023-04-24T01:25:21;2.33;;;1.15;;
51358;SDS011;37448;51.588;7.248;2023-04-24T01:27:23;1.05;;;0.68;;
51358;SDS011;37448;51.588;7.248;2023-04-24T01:29:23;1.30;;;0.82;;
51358;SDS011;37448;51.588;7.248;2023-04-24T01:31:23;1.02;;;0.73;;
51358;SDS011;37448;51.588;7.248;2023-04-24T01:33:24;2.50;;;0.93;;
51358;SDS011;37448;51.588;7.248;2023-04-24T01:35:25;1.65;;;1.23;;
51358;SDS011;37448;51.588;7.248;2023-04-24T01:37:26;2.30;;;1.35;;
51358;SDS011;37448;51.588;7.248;2023-04-24T01:39:26;1.60;;;0.88;;
51358;SDS011;37448;51.588;7.248;2023-04-24T01:41:28;1.30;;;1.00;;
51358;SDS011;37448;51.588;7.248;2023-04-24T01:43:30;2.00;;;1.33;;
51358;SDS011;37448;51.588;7.248;2023-04-24T01:45:31;2.85;;;1.50;;
51358;SDS011;37448;51.588;7.248;2023-04-24T01:47:32;3.00;;;0.90;;
51358;SDS011;37448;51.588;7.248;2023-04-24T01:49:32;1.40;;;0.80;;
51358;SDS011;37448;51.588;7.248;2023-04-24T01:51:33;2.35;;;0.90;;
51358;SDS011;37448;51.588;7.248;2023-04-24T01:53:33;1.70;;;1.38;;
51358;SDS011;37448;51.588;7.248;2023-04-24T01:55:34;1.05;;;0.80;;
51358;SDS011;37448;51.588;7.248;2023-04-24T01:57:34;1.55;;;1.35;;
51358;SDS011;37448;51.588;7.248;2023-04-24T01:59:35;3.20;;;1.60;;
51358;SDS011;37448;51.588;7.248;2023-04-24T02:01:36;1.90;;;1.10;;
51358;SDS011;37448;51.588;7.248;2023-04-24T02:03:37;1.88;;;1.30;;
51358;SDS011;37448;51.588;7.248;2023-04-24T02:05:38;2.05;;;1.38;;
51358;SDS011;37448;51.588;7.248;2023-04-24T02:07:38;2.30;;;1.55;;
51358;SDS011;37448;51.588;7.248;2023-04-24T02:09:39;2.55;;;1.52;;
51358;SDS011;37448;51.588;7.248;2023-04-24T02:11:39;2.97;;;1.88;;
51358;SDS011;37448;51.588;7.248;2023-04-24T02:13:40;2.67;;;1.92;;
51358;SDS011;37448;51.588;7.248;2023-04-24T02:15:40;2.83;;;2.13;;
51358;SDS011;37448;51.588;7.248;2023-04-24T02:17:40;3.20;;;2.40;;
51358;SDS011;37448;51.588;7.248;2023-04-24T02:19:41;2.95;;;2.63;;
51358;SDS011;37448;51.588;7.248;2023-04-24T02:21:41;3.67;;;2.28;;
51358;SDS011;37448;51.588;7.248;2023-04-24T02:23:42;4.65;;;2.10;;
51358;SDS011;37448;51.588;7.248;2023-04-24T02:25:43;2.65;;;1.83;;
51358;SDS011;37448;51.588;7.248;2023-04-24T02:27:43;1.67;;;1.58;;
51358;SDS011;37448;51.588;7.248;2023-04-24T02:29:44;3.53;;;1.83;;
51358;SDS011;37448;51.588;7.248;2023-04-24T02:31:44;3.65;;;1.88;;
51358;SDS011;37448;51.588;7.248;2023-04-24T02:33:48;4.68;;;2.38;;
51358;SDS011;37448;51.588;7.248;2023-04-24T02:35:48;4.65;;;1.67;;
51358;SDS011;37448;51.588;7.248;2023-04-24T02:37:49;3.00;;;2.17;;
51358;SDS011;37448;51.588;7.248;2023-04-24T02:39:49;3.47;;;2.50;;
51358;SDS011;37448;51.588;7.248;2023-04-24T02:41:49;3.20;;;1.98;;
51358;SDS011;37448;51.588;7.248;2023-04-24T02:43:50;3.75;;;2.67;;
51358;SDS011;37448;51.588;7.248;2023-04-24T02:45:50;3.42;;;2.97;;
51358;SDS011;37448;51.588;7.248;2023-04-24T02:47:51;7.03;;;3.03;;
51358;SDS011;37448;51.588;7.248;2023-04-24T02:49:51;5.63;;;3.33;;
51358;SDS011;37448;51.588;7.248;2023-04-24T02:51:52;6.97;;;2.95;;
51358;SDS011;37448;51.588;7.248;2023-04-24T02:53:52;5.45;;;3.15;;
51358;SDS011;37448;51.588;7.248;2023-04-24T02:55:53;8.32;;;3.92;;
51358;SDS011;37448;51.588;7.248;2023-04-24T02:57:53;5.90;;;3.72;;
51358;SDS011;37448;51.588;7.248;2023-04-24T02:59:54;7.13;;;4.60;;
51358;SDS011;37448;51.588;7.248;2023-04-24T03:01:54;8.82;;;4.10;;
51358;SDS011;37448;51.588;7.248;2023-04-24T03:03:54;8.23;;;3.85;;
51358;SDS011;37448;51.588;7.248;2023-04-24T03:05:55;7.78;;;4.57;;
51358;SDS011;37448;51.588;7.248;2023-04-24T03:07:57;6.68;;;4.28;;
51358;SDS011;37448;51.588;7.248;2023-04-24T03:09:57;6.72;;;4.80;;
51358;SDS011;37448;51.588;7.248;2023-04-24T03:11:58;8.00;;;4.43;;
51358;SDS011;37448;51.588;7.248;2023-04-24T03:13:58;9.30;;;4.60;;
51358;SDS011;37448;51.588;7.248;2023-04-24T03:15:59;10.05;;;5.68;;
51358;SDS011;37448;51.588;7.248;2023-04-24T03:18:01;7.28;;;4.65;;
51358;SDS011;37448;51.588;7.248;2023-04-24T03:20:03;7.35;;;4.20;;
51358;SDS011;37448;51.588;7.248;2023-04-24T03:22:06;8.27;;;4.35;;
51358;SDS011;37448;51.588;7.248;2023-04-24T03:24:08;7.88;;;4.85;;
51358;SDS011;37448;51.588;7.248;2023-04-24T03:26:09;7.68;;;4.72;;
51358;SDS011;37448;51.588;7.248;2023-04-24T03:28:13;7.15;;;4.38;;
51358;SDS011;37448;51.588;7.248;2023-04-24T03:30:17;7.20;;;4.53;;
51358;SDS011;37448;51.588;7.248;2023-04-24T03:32:23;8.57;;;4.53;;
51358;SDS011;37448;51.588;7.248;2023-04-24T03:34:24;6.85;;;4.43;;
51358;SDS011;37448;51.588;7.248;2023-04-24T03:36:24;13.13;;;5.32;;
51358;SDS011;37448;51.588;7.248;2023-04-24T03:38:26;8.75;;;4.32;;
51358;SDS011;37448;51.588;7.248;2023-04-24T03:40:36;9.95;;;4.78;;
51358;SDS011;37448;51.588;7.248;2023-04-24T03:42:42;13.18;;;6.35;;
51358;SDS011;37448;51.588;7.248;2023-04-24T03:44:42;8.73;;;5.10;;
51358;SDS011;37448;51.588;7.248;2023-04-24T03:46:43;10.10;;;5.65;;
51358;SDS011;37448;51.588;7.248;2023-04-24T03:48:43;10.38;;;5.35;;
51358;SDS011;37448;51.588;7.248;2023-04-24T03:50:44;11.50;;;5.90;;
51358;SDS011;37448;51.588;7.248;2023-04-24T03:52:46;10.93;;;6.25;;
51358;SDS011;37448;51.588;7.248;2023-04-24T03:54:54;9.73;;;5.50;;
51358;SDS011;37448;51.588;7.248;2023-04-24T03:56:56;11.48;;;5.85;;
51358;SDS011;37448;51.588;7.248;2023-04-24T03:58:58;9.00;;;6.00;;
51358;SDS011;37448;51.588;7.248;2023-04-24T04:00:59;8.43;;;5.53;;
51358;SDS011;37448;51.588;7.248;2023-04-24T04:03:12;9.63;;;5.28;;
51358;SDS011;37448;51.588;7.248;2023-04-24T04:05:14;10.32;;;5.57;;
51358;SDS011;37448;51.588;7.248;2023-04-24T04:07:15;10.02;;;5.45;;
51358;SDS011;37448;51.588;7.248;2023-04-24T04:09:16;8.93;;;5.40;;
51358;SDS011;37448;51.588;7.248;2023-04-24T04:11:16;8.35;;;5.38;;
51358;SDS011;37448;51.588;7.248;2023-04-24T04:13:18;10.25;;;6.15;;
51358;SDS011;37448;51.588;7.248;2023-04-24T04:15:19;11.48;;;5.43;;
51358;SDS011;37448;51.588;7.248;2023-04-24T04:17:19;10.82;;;5.40;;
51358;SDS011;37448;51.588;7.248;2023-04-24T04:19:20;10.23;;;5.82;;
51358;SDS011;37448;51.588;7.248;2023-04-24T04:21:20;12.73;;;5.88;;
51358;SDS011;37448;51.588;7.248;2023-04-24T04:23:23;8.38;;;4.97;;
51358;SDS011;37448;51.588;7.248;2023-04-24T04:25:37;7.90;;;5.63;;
51358;SDS011;37448;51.588;7.248;2023-04-24T04:27:38;11.13;;;5.00;;
51358;SDS011;37448;51.588;7.248;2023-04-24T04:29:44;9.82;;;6.10;;
51358;SDS011;37448;51.588;7.248;2023-04-24T04:31:46;11.70;;;5.32;;
51358;SDS011;37448;51.588;7.248;2023-04-24T04:33:47;10.18;;;5.18;;
51358;SDS011;37448;51.588;7.248;2023-04-24T04:35:48;7.18;;;4.95;;
51358;SDS011;37448;51.588;7.248;2023-04-24T04:37:58;10.45;;;5.95;;
51358;SDS011;37448;51.588;7.248;2023-04-24T04:40:17;12.07;;;5.78;;
51358;SDS011;37448;51.588;7.248;2023-04-24T04:42:24;10.88;;;5.88;;
51358;SDS011;37448;51.588;7.248;2023-04-24T04:44:25;9.10;;;5.32;;
51358;SDS011;37448;51.588;7.248;2023-04-24T04:46:28;12.27;;;7.00;;
51358;SDS011;37448;51.588;7.248;2023-04-24T04:48:50;13.00;;;5.55;;
51358;SDS011;37448;51.588;7.248;2023-04-24T04:50:51;9.93;;;5.47;;
51358;SDS011;37448;51.588;7.248;2023-04-24T04:52:53;10.38;;;5.10;;
51358;SDS011;37448;51.588;7.248;2023-04-24T04:55:00;9.40;;;5.35;;
51358;SDS011;37448;51.588;7.248;2023-04-24T04:57:15;10.88;;;5.25;;
51358;SDS011;37448;51.588;7.248;2023-04-24T04:59:16;9.45;;;5.40;;
51358;SDS011;37448;51.588;7.248;2023-04-24T05:01:17;8.20;;;6.03;;
51358;SDS011;37448;51.588;7.248;2023-04-24T05:03:20;9.48;;;5.72;;
51358;SDS011;37448;51.588;7.248;2023-04-24T05:05:22;10.10;;;4.97;;
51358;SDS011;37448;51.588;7.248;2023-04-24T05:07:23;9.65;;;4.68;;
51358;SDS011;37448;51.588;7.248;2023-04-24T05:09:25;8.63;;;5.13;;
51358;SDS011;37448;51.588;7.248;2023-04-24T05:11:30;10.10;;;5.57;;
51358;SDS011;37448;51.588;7.248;2023-04-24T05:13:31;9.85;;;5.43;;
51358;SDS011;37448;51.588;7.248;2023-04-24T05:15:33;8.43;;;5.38;;
51358;SDS011;37448;51.588;7.248;2023-04-24T05:17:35;9.32;;;5.22;;
51358;SDS011;37448;51.588;7.248;2023-04-24T05:19:36;12.70;;;5.30;;
51358;SDS011;37448;51.588;7.248;2023-04-24T05:21:38;9.73;;;5.40;;
51358;SDS011;37448;51.588;7.248;2023-04-24T05:23:39;9.70;;;5.05;;
51358;SDS011;37448;51.588;7.248;2023-04-24T05:25:39;7.35;;;4.80;;
51358;SDS011;37448;51.588;7.248;2023-04-24T05:27:44;12.00;;;5.60;;
51358;SDS011;37448;51.588;7.248;2023-04-24T05:29:49;10.68;;;4.63;;
51358;SDS011;37448;51.588;7.248;2023-04-24T05:31:49;9.05;;;5.15;;
51358;SDS011;37448;51.588;7.248;2023-04-24T05:33:50;10.05;;;4.97;;
51358;SDS011;37448;51.588;7.248;2023-04-24T05:35:50;8.98;;;4.68;;
51358;SDS011;37448;51.588;7.248;2023-04-24T05:37:51;8.43;;;4.47;;
51358;SDS011;37448;51.588;7.248;2023-04-24T05:39:52;9.95;;;5.68;;
51358;SDS011;37448;51.588;7.248;2023-04-24T05:41:52;8.63;;;5.07;;
51358;SDS011;37448;51.588;7.248;2023-04-24T05:43:52;12.07;;;4.80;;
51358;SDS011;37448;51.588;7.248;2023-04-24T05:45:53;10.85;;;4.68;;
51358;SDS011;37448;51.588;7.248;2023-04-24T05:47:53;10.38;;;5.20;;
51358;SDS011;37448;51.588;7.248;2023-04-24T05:49:54;5.95;;;4.00;;
51358;SDS011;37448;51.588;7.248;2023-04-24T05:51:54;9.20;;;4.53;;
51358;SDS011;37448;51.588;7.248;2023-04-24T05:53:55;8.27;;;4.28;;
51358;SDS011;37448;51.588;7.248;2023-04-24T05:55:56;6.90;;;4.97;;
51358;SDS011;37448;51.588;7.248;2023-04-24T05:57:57;8.35;;;4.15;;
51358;SDS011;37448;51.588;7.248;2023-04-24T05:59:58;7.25;;;4.03;;
51358;SDS011;37448;51.588;7.248;2023-04-24T06:01:59;7.78;;;4.80;;
51358;SDS011;37448;51.588;7.248;2023-04-24T06:04:00;6.32;;;4.60;;
51358;SDS011;37448;51.588;7.248;2023-04-24T06:06:00;10.10;;;4.53;;
51358;SDS011;37448;51.588;7.248;2023-04-24T06:08:01;6.15;;;4.07;;
51358;SDS011;37448;51.588;7.248;2023-04-24T06:10:06;9.73;;;5.35;;
51358;SDS011;37448;51.588;7.248;2023-04-24T06:12:13;9.68;;;5.40;;
51358;SDS011;37448;51.588;7.248;2023-04-24T06:14:40;10.25;;;5.18;;
51358;SDS011;37448;51.588;7.248;2023-04-24T06:16:53;9.40;;;4.93;;
51358;SDS011;37448;51.588;7.248;2023-04-24T06:19:05;14.70;;;6.47;;
51358;SDS011;37448;51.588;7.248;2023-04-24T06:21:05;12.75;;;5.45;;
51358;SDS011;37448;51.588;7.248;2023-04-24T06:23:06;13.52;;;5.07;;
51358;SDS011;37448;51.588;7.248;2023-04-24T06:25:07;9.55;;;5.65;;
51358;SDS011;37448;51.588;7.248;2023-04-24T06:27:08;7.75;;;4.55;;
51358;SDS011;37448;51.588;7.248;2023-04-24T06:29:08;8.88;;;4.65;;
51358;SDS011;37448;51.588;7.248;2023-04-24T06:31:09;8.60;;;4.95;;
51358;SDS011;37448;51.588;7.248;2023-04-24T06:33:10;7.15;;;4.40;;
51358;SDS011;37448;51.588;7.248;2023-04-24T06:35:10;7.80;;;4.68;;
51358;SDS011;37448;51.588;7.248;2023-04-24T06:37:12;9.95;;;4.75;;
51358;SDS011;37448;51.588;7.248;2023-04-24T06:39:12;7.35;;;4.22;;
51358;SDS011;37448;51.588;7.248;2023-04-24T06:41:13;9.38;;;4.78;;
51358;SDS011;37448;51.588;7.248;2023-04-24T06:43:13;9.90;;;4.38;;
51358;SDS011;37448;51.588;7.248;2023-04-24T06:45:14;6.70;;;4.13;;
51358;SDS011;37448;51.588;7.248;2023-04-24T06:47:15;9.95;;;4.75;;
51358;SDS011;37448;51.588;7.248;2023-04-24T06:49:15;7.90;;;4.22;;
51358;SDS011;37448;51.588;7.248;2023-04-24T06:51:16;7.55;;;4.35;;
51358;SDS011;37448;51.588;7.248;2023-04-24T06:53:18;8.43;;;3.97;;
51358;SDS011;37448;51.588;7.248;2023-04-24T06:55:18;5.85;;;3.95;;
51358;SDS011;37448;51.588;7.248;2023-04-24T06:57:19;8.15;;;3.40;;
51358;SDS011;37448;51.588;7.248;2023-04-24T06:59:19;5.85;;;4.57;;
51358;SDS011;37448;51.588;7.248;2023-04-24T07:01:20;6.80;;;3.83;;
51358;SDS011;37448;51.588;7.248;2023-04-24T07:03:20;6.68;;;3.55;;
51358;SDS011;37448;51.588;7.248;2023-04-24T07:05:21;9.27;;;4.35;;
51358;SDS011;37448;51.588;7.248;2023-04-24T07:07:21;6.88;;;4.20;;
51358;SDS011;37448;51.588;7.248;2023-04-24T07:09:24;6.60;;;3.67;;
51358;SDS011;37448;51.588;7.248;2023-04-24T07:11:25;6.53;;;3.63;;
51358;SDS011;37448;51.588;7.248;2023-04-24T07:13:29;4.90;;;3.63;;
51358;SDS011;37448;51.588;7.248;2023-04-24T07:15:29;4.75;;;2.92;;
51358;SDS011;37448;51.588;7.248;2023-04-24T07:17:29;4.90;;;3.17;;
51358;SDS011;37448;51.588;7.248;2023-04-24T07:19:30;5.45;;;3.40;;
51358;SDS011;37448;51.588;7.248;2023-04-24T07:21:30;4.57;;;2.97;;
51358;SDS011;37448;51.588;7.248;2023-04-24T07:23:31;5.50;;;3.72;;
51358;SDS011;37448;51.588;7.248;2023-04-24T07:25:32;4.20;;;3.28;;
51358;SDS011;37448;51.588;7.248;2023-04-24T07:27:33;5.47;;;3.25;;
51358;SDS011;37448;51.588;7.248;2023-04-24T07:29:34;8.68;;;3.22;;
51358;SDS011;37448;51.588;7.248;2023-04-24T07:31:35;5.95;;;2.72;;
51358;SDS011;37448;51.588;7.248;2023-04-24T07:33:36;4.60;;;3.17;;
51358;SDS011;37448;51.588;7.248;2023-04-24T07:35:36;4.63;;;2.95;;
51358;SDS011;37448;51.588;7.248;2023-04-24T07:37:36;4.80;;;2.42;;
51358;SDS011;37448;51.588;7.248;2023-04-24T07:39:37;5.90;;;2.95;;
51358;SDS011;37448;51.588;7.248;2023-04-24T07:41:37;3.83;;;2.92;;
51358;SDS011;37448;51.588;7.248;2023-04-24T07:43:38;3.30;;;2.10;;
51358;SDS011;37448;51.588;7.248;2023-04-24T07:45:38;3.40;;;2.58;;
51358;SDS011;37448;51.588;7.248;2023-04-24T07:47:41;4.57;;;2.08;;
51358;SDS011;37448;51.588;7.248;2023-04-24T07:49:43;3.10;;;2.17;;
51358;SDS011;37448;51.588;7.248;2023-04-24T07:51:44;3.60;;;2.33;;
51358;SDS011;37448;51.588;7.248;2023-04-24T07:53:45;4.65;;;2.25;;
51358;SDS011;37448;51.588;7.248;2023-04-24T07:55:45;3.85;;;2.25;;
51358;SDS011;37448;51.588;7.248;2023-04-24T07:57:46;5.35;;;1.80;;
51358;SDS011;37448;51.588;7.248;2023-04-24T07:59:46;4.72;;;2.05;;
51358;SDS011;37448;51.588;7.248;2023-04-24T08:01:47;2.85;;;1.83;;
51358;SDS011;37448;51.588;7.248;2023-04-24T08:03:47;3.53;;;2.60;;
51358;SDS011;37448;51.588;7.248;2023-04-24T08:05:47;3.28;;;1.50;;
51358;SDS011;37448;51.588;7.248;2023-04-24T08:07:48;2.95;;;1.45;;
51358;SDS011;37448;51.588;7.248;2023-04-24T08:09:50;1.90;;;1.33;;
51358;SDS011;37448;51.588;7.248;2023-04-24T08:11:50;2.30;;;1.48;;
51358;SDS011;37448;51.588;7.248;2023-04-24T08:13:51;2.90;;;1.50;;
51358;SDS011;37448;51.588;7.248;2023-04-24T08:15:51;2.63;;;1.10;;
51358;SDS011;37448;51.588;7.248;2023-04-24T08:17:52;4.28;;;1.35;;
51358;SDS011;37448;51.588;7.248;2023-04-24T08:19:52;0.98;;;0.88;;
51358;SDS011;37448;51.588;7.248;2023-04-24T08:21:59;2.92;;;1.75;;
51358;SDS011;37448;51.588;7.248;2023-04-24T08:23:59;3.58;;;1.75;;
51358;SDS011;37448;51.588;7.248;2023-04-24T08:25:59;3.75;;;0.80;;
51358;SDS011;37448;51.588;7.248;2023-04-24T08:28:00;0.98;;;0.75;;
51358;SDS011;37448;51.588;7.248;2023-04-24T08:30:03;1.10;;;0.60;;
51358;SDS011;37448;51.588;7.248;2023-04-24T08:32:04;1.75;;;0.60;;
51358;SDS011;37448;51.588;7.248;2023-04-24T08:34:04;1.33;;;1.23;;
51358;SDS011;37448;51.588;7.248;2023-04-24T08:36:05;0.55;;;0.47;;
51358;SDS011;37448;51.588;7.248;2023-04-24T08:38:06;0.32;;;0.32;;
51358;SDS011;37448;51.588;7.248;2023-04-24T08:40:10;0.73;;;0.43;;
51358;SDS011;37448;51.588;7.248;2023-04-24T08:42:14;0.88;;;0.60;;
51358;SDS011;37448;51.588;7.248;2023-04-24T08:44:15;2.55;;;2.10;;
51358;SDS011;37448;51.588;7.248;2023-04-24T08:46:16;2.45;;;1.10;;
51358;SDS011;37448;51.588;7.248;2023-04-24T08:48:19;1.45;;;0.90;;
51358;SDS011;37448;51.588;7.248;2023-04-24T08:50:21;1.15;;;0.82;;
51358;SDS011;37448;51.588;7.248;2023-04-24T08:52:22;3.80;;;1.20;;
51358;SDS011;37448;51.588;7.248;2023-04-24T08:54:23;1.45;;;1.05;;
51358;SDS011;37448;51.588;7.248;2023-04-24T08:56:24;1.15;;;0.85;;
51358;SDS011;37448;51.588;7.248;2023-04-24T08:58:27;2.47;;;1.10;;
51358;SDS011;37448;51.588;7.248;2023-04-24T09:00:28;1.00;;;0.90;;
51358;SDS011;37448;51.588;7.248;2023-04-24T09:02:28;1.90;;;1.08;;
51358;SDS011;37448;51.588;7.248;2023-04-24T09:04:30;1.35;;;1.00;;
51358;SDS011;37448;51.588;7.248;2023-04-24T09:06:32;1.60;;;1.02;;
51358;SDS011;37448;51.588;7.248;2023-04-24T09:08:34;1.73;;;1.00;;
51358;SDS011;37448;51.588;7.248;2023-04-24T09:10:36;1.45;;;1.10;;
51358;SDS011;37448;51.588;7.248;2023-04-24T09:12:36;1.35;;;1.15;;
51358;SDS011;37448;51.588;7.248;2023-04-24T09:14:36;2.53;;;1.35;;
51358;SDS011;37448;51.588;7.248;2023-04-24T09:16:42;3.40;;;1.58;;
51358;SDS011;37448;51.588;7.248;2023-04-24T09:18:42;1.95;;;1.45;;
51358;SDS011;37448;51.588;7.248;2023-04-24T09:20:59;2.60;;;2.38;;
51358;SDS011;37448;51.588;7.248;2023-04-24T09:23:01;3.72;;;2.00;;
51358;SDS011;37448;51.588;7.248;2023-04-24T09:25:05;3.60;;;2.08;;
51358;SDS011;37448;51.588;7.248;2023-04-24T09:27:07;2.30;;;2.08;;
51358;SDS011;37448;51.588;7.248;2023-04-24T09:29:14;3.03;;;2.25;;
51358;SDS011;37448;51.588;7.248;2023-04-24T09:31:18;3.83;;;2.28;;
51358;SDS011;37448;51.588;7.248;2023-04-24T09:33:21;3.40;;;2.00;;
51358;SDS011;37448;51.588;7.248;2023-04-24T09:35:21;4.15;;;2.40;;
51358;SDS011;37448;51.588;7.248;2023-04-24T09:37:28;2.50;;;2.08;;
51358;SDS011;37448;51.588;7.248;2023-04-24T09:39:29;2.63;;;2.13;;
51358;SDS011;37448;51.588;7.248;2023-04-24T09:41:29;3.95;;;2.05;;
51358;SDS011;37448;51.588;7.248;2023-04-24T09:43:31;2.65;;;2.40;;
51358;SDS011;37448;51.588;7.248;2023-04-24T09:45:36;2.13;;;1.50;;
51358;SDS011;37448;51.588;7.248;2023-04-24T09:47:38;3.22;;;1.77;;
51358;SDS011;37448;51.588;7.248;2023-04-24T09:49:39;1.73;;;1.10;;
51358;SDS011;37448;51.588;7.248;2023-04-24T09:51:41;1.35;;;1.00;;
51358;SDS011;37448;51.588;7.248;2023-04-24T09:53:45;1.30;;;0.80;;
51358;SDS011;37448;51.588;7.248;2023-04-24T09:55:49;2.15;;;0.90;;
51358;SDS011;37448;51.588;7.248;2023-04-24T09:57:54;1.00;;;0.77;;
51358;SDS011;37448;51.588;7.248;2023-04-24T09:59:56;1.40;;;0.70;;
51358;SDS011;37448;51.588;7.248;2023-04-24T10:01:57;1.38;;;0.73;;
51358;SDS011;37448;51.588;7.248;2023-04-24T10:03:59;2.10;;;0.80;;
51358;SDS011;37448;51.588;7.248;2023-04-24T10:06:00;1.50;;;0.93;;
51358;SDS011;37448;51.588;7.248;2023-04-24T10:08:09;2.97;;;1.17;;
51358;SDS011;37448;51.588;7.248;2023-04-24T10:10:11;2.42;;;1.55;;
51358;SDS011;37448;51.588;7.248;2023-04-24T10:12:12;3.50;;;1.60;;
51358;SDS011;37448;51.588;7.248;2023-04-24T10:14:14;2.08;;;1.40;;
51358;SDS011;37448;51.588;7.248;2023-04-24T10:16:16;3.58;;;2.38;;
51358;SDS011;37448;51.588;7.248;2023-04-24T10:18:17;3.35;;;1.90;;
51358;SDS011;37448;51.588;7.248;2023-04-24T10:20:22;3.88;;;2.25;;
51358;SDS011;37448;51.588;7.248;2023-04-24T10:22:23;4.70;;;1.98;;
51358;SDS011;37448;51.588;7.248;2023-04-24T10:24:24;2.88;;;1.80;;
51358;SDS011;37448;51.588;7.248;2023-04-24T10:26:25;4.45;;;2.10;;
51358;SDS011;37448;51.588;7.248;2023-04-24T10:28:27;3.17;;;2.35;;
51358;SDS011;37448;51.588;7.248;2023-04-24T10:30:32;3.15;;;1.98;;
51358;SDS011;37448;51.588;7.248;2023-04-24T10:32:36;4.53;;;2.58;;
51358;SDS011;37448;51.588;7.248;2023-04-24T10:34:36;2.95;;;2.22;;
51358;SDS011;37448;51.588;7.248;2023-04-24T10:36:41;3.85;;;2.25;;
51358;SDS011;37448;51.588;7.248;2023-04-24T10:38:46;4.63;;;2.65;;
51358;SDS011;37448;51.588;7.248;2023-04-24T10:40:47;6.95;;;2.50;;
51358;SDS011;37448;51.588;7.248;2023-04-24T10:42:48;4.47;;;3.10;;
51358;SDS011;37448;51.588;7.248;2023-04-24T10:44:49;5.28;;;3.50;;
51358;SDS011;37448;51.588;7.248;2023-04-24T10:46:52;5.32;;;2.90;;
51358;SDS011;37448;51.588;7.248;2023-04-24T10:48:55;5.50;;;2.88;;
51358;SDS011;37448;51.588;7.248;2023-04-24T10:50:56;5.82;;;3.28;;
51358;SDS011;37448;51.588;7.248;2023-04-24T10:53:07;7.40;;;3.72;;
51358;SDS011;37448;51.588;7.248;2023-04-24T10:55:15;6.13;;;3.72;;
51358;SDS011;37448;51.588;7.248;2023-04-24T10:59:26;7.47;;;3.22;;
51358;SDS011;37448;51.588;7.248;2023-04-24T11:01:28;5.95;;;3.30;;
51358;SDS011;37448;51.588;7.248;2023-04-24T11:03:30;4.75;;;2.33;;
51358;SDS011;37448;51.588;7.248;2023-04-24T11:05:51;6.00;;;3.05;;
51358;SDS011;37448;51.588;7.248;2023-04-24T11:08:15;4.50;;;3.15;;
51358;SDS011;37448;51.588;7.248;2023-04-24T11:10:25;6.05;;;3.00;;
51358;SDS011;37448;51.588;7.248;2023-04-24T11:12:26;11.50;;;3.17;;
51358;SDS011;37448;51.588;7.248;2023-04-24T11:14:26;11.88;;;3.50;;
51358;SDS011;37448;51.588;7.248;2023-04-24T11:16:28;10.70;;;4.03;;
51358;SDS011;37448;51.588;7.248;2023-04-24T11:18:38;7.65;;;3.92;;
51358;SDS011;37448;51.588;7.248;2023-04-24T11:20:45;7.93;;;3.72;;
51358;SDS011;37448;51.588;7.248;2023-04-24T11:22:46;7.65;;;4.57;;
51358;SDS011;37448;51.588;7.248;2023-04-24T11:26:57;13.48;;;3.42;;
51358;SDS011;37448;51.588;7.248;2023-04-24T11:29:07;9.45;;;3.90;;
51358;SDS011;37448;51.588;7.248;2023-04-24T11:33:27;13.07;;;4.13;;
51358;SDS011;37448;51.588;7.248;2023-04-24T11:35:28;11.75;;;4.10;;
51358;SDS011;37448;51.588;7.248;2023-04-24T11:37:34;8.07;;;4.55;;
51358;SDS011;37448;51.588;7.248;2023-04-24T11:39:40;7.57;;;4.55;;
51358;SDS011;37448;51.588;7.248;2023-04-24T11:41:40;7.65;;;3.40;;
51358;SDS011;37448;51.588;7.248;2023-04-24T11:43:41;9.77;;;3.72;;
51358;SDS011;37448;51.588;7.248;2023-04-24T11:45:47;7.18;;;3.33;;
51358;SDS011;37448;51.588;7.248;2023-04-24T11:47:48;3.38;;;3.08;;
51358;SDS011;37448;51.588;7.248;2023-04-24T11:49:50;7.13;;;3.05;;
51358;SDS011;37448;51.588;7.248;2023-04-24T11:51:54;9.00;;;3.25;;
51358;SDS011;37448;51.588;7.248;2023-04-24T11:53:55;7.15;;;3.08;;
51358;SDS011;37448;51.588;7.248;2023-04-24T11:55:56;14.18;;;3.33;;
51358;SDS011;37448;51.588;7.248;2023-04-24T11:57:57;9.38;;;3.35;;
51358;SDS011;37448;51.588;7.248;2023-04-24T12:00:00;7.15;;;3.05;;
51358;SDS011;37448;51.588;7.248;2023-04-24T12:04:25;8.63;;;3.83;;
51358;SDS011;37448;51.588;7.248;2023-04-24T12:06:26;10.38;;;3.53;;
51358;SDS011;37448;51.588;7.248;2023-04-24T12:08:27;7.38;;;3.13;;
51358;SDS011;37448;51.588;7.248;2023-04-24T12:10:29;5.13;;;2.80;;
51358;SDS011;37448;51.588;7.248;2023-04-24T12:12:31;9.73;;;3.30;;
51358;SDS011;37448;51.588;7.248;2023-04-24T12:14:31;7.70;;;2.95;;
51358;SDS011;37448;51.588;7.248;2023-04-24T12:16:32;4.25;;;2.75;;
51358;SDS011;37448;51.588;7.248;2023-04-24T12:18:33;7.88;;;2.33;;
51358;SDS011;37448;51.588;7.248;2023-04-24T12:20:35;4.50;;;1.80;;
51358;SDS011;37448;51.588;7.248;2023-04-24T12:26:58;3.83;;;1.80;;